createdAt,value
2023-04-15T00:00:19.236Z,88.64
2023-04-15T00:01:21.499Z,89.16
2023-04-15T00:02:23.939Z,88.87
2023-04-15T00:03:26.488Z,88.61
2023-04-15T00:04:29.062Z,88.81
2023-04-15T00:05:31.692Z,88.58
2023-04-15T00:06:33.791Z,88.78
2023-04-15T00:07:36.102Z,88.90
2023-04-15T00:08:38.587Z,89.08
2023-04-15T00:09:44.690Z,88.74
2023-04-15T00:10:46.931Z,88.80
2023-04-15T00:11:50.512Z,89.18
2023-04-15T00:12:53.105Z,89.48
2023-04-15T00:13:55.177Z,89.54
2023-04-15T00:14:58.877Z,89.28
2023-04-15T00:16:01.675Z,88.99
2023-04-15T00:17:04.770Z,88.74
2023-04-15T00:18:08.194Z,89.11
2023-04-15T00:19:10.435Z,89.19
2023-04-15T00:20:12.795Z,89.81
2023-04-15T00:21:15.039Z,89.98
2023-04-15T00:22:18.160Z,89.12
2023-04-15T00:23:20.333Z,89.27
2023-04-15T00:24:23.305Z,89.27
2023-04-15T00:25:25.429Z,89.62
2023-04-15T00:26:27.695Z,89.35
2023-04-15T00:27:30.479Z,89.09
2023-04-15T00:28:32.639Z,88.80
2023-04-15T00:29:35.693Z,88.75
2023-04-15T00:30:38.078Z,88.97
2023-04-15T00:31:40.155Z,89.11
2023-04-15T00:32:42.531Z,89.26
2023-04-15T00:33:44.793Z,89.08
2023-04-15T00:34:47.238Z,89.40
2023-04-15T00:35:49.308Z,88.88
2023-04-15T00:36:52.670Z,89.46
2023-04-15T00:37:54.913Z,89.67
2023-04-15T00:38:56.997Z,89.29
2023-04-15T00:39:59.118Z,89.68
2023-04-15T00:41:01.313Z,89.29
2023-04-15T00:42:04.930Z,89.59
2023-04-15T00:43:07.189Z,89.57
2023-04-15T00:44:09.426Z,89.40
2023-04-15T00:45:12.137Z,89.56
2023-04-15T00:46:16.062Z,89.49
2023-04-15T00:47:19.107Z,89.47
2023-04-15T00:48:21.380Z,89.69
2023-04-15T00:49:24.280Z,89.45
2023-04-15T00:50:26.449Z,89.71
2023-04-15T00:51:28.536Z,89.37
2023-04-15T00:52:30.821Z,89.11
2023-04-15T00:53:32.989Z,89.53
2023-04-15T00:54:35.132Z,89.56
2023-04-15T00:55:38.083Z,90.19
2023-04-15T00:56:40.331Z,90.58
2023-04-15T00:57:42.673Z,90.20
2023-04-15T00:58:44.746Z,89.38
2023-04-15T00:59:47.224Z,89.60
2023-04-15T01:00:49.461Z,89.34
2023-04-15T01:01:52.305Z,89.04
2023-04-15T01:02:54.487Z,88.54
2023-04-15T01:04:00.610Z,88.53
2023-04-15T01:05:04.309Z,88.73
2023-04-15T01:06:06.665Z,88.62
2023-04-15T01:07:09.237Z,88.84
2023-04-15T01:08:11.404Z,88.93
2023-04-15T01:09:13.551Z,88.95
2023-04-15T01:10:15.773Z,88.70
2023-04-15T01:11:18.167Z,88.94
2023-04-15T01:12:20.651Z,89.84
2023-04-15T01:13:24.467Z,89.62
2023-04-15T01:14:26.628Z,89.05
2023-04-15T01:15:28.982Z,89.35
2023-04-15T01:16:31.643Z,89.33
2023-04-15T01:17:34.037Z,88.89
2023-04-15T01:18:37.831Z,88.26
2023-04-15T01:19:40.201Z,88.34
2023-04-15T01:20:42.486Z,88.65
2023-04-15T01:21:45.309Z,88.49
2023-04-15T01:22:47.950Z,88.50
2023-04-15T01:23:51.592Z,88.30
2023-04-15T01:25:10.542Z,88.90
2023-04-15T01:26:13.397Z,89.07
2023-04-15T01:27:15.874Z,89.02
2023-04-15T01:28:18.185Z,89.01
2023-04-15T01:29:20.330Z,89.59
2023-04-15T01:30:22.424Z,89.20
2023-04-15T01:31:24.589Z,89.04
2023-04-15T01:32:27.213Z,88.89
2023-04-15T01:33:29.428Z,88.67
2023-04-15T01:34:34.288Z,88.67
2023-04-15T01:35:37.681Z,88.48
2023-04-15T01:36:39.780Z,88.48
2023-04-15T01:37:42.176Z,88.41
2023-04-15T01:38:44.391Z,89.11
2023-04-15T01:39:46.498Z,88.90
2023-04-15T01:40:48.906Z,88.45
2023-04-15T01:41:50.992Z,88.76
2023-04-15T01:42:53.078Z,88.80
2023-04-15T01:43:55.751Z,88.46
2023-04-15T01:44:57.868Z,88.12
2023-04-15T01:46:00.083Z,88.12
2023-04-15T01:47:02.357Z,87.98
2023-04-15T01:48:04.589Z,88.72
2023-04-15T01:49:06.702Z,88.56
2023-04-15T01:50:09.737Z,88.19
2023-04-15T01:51:12.149Z,88.29
2023-04-15T01:52:14.469Z,88.14
2023-04-15T01:53:16.882Z,87.81
2023-04-15T01:54:19.017Z,88.00
2023-04-15T01:55:21.248Z,88.06
2023-04-15T01:56:26.713Z,87.77
2023-04-15T01:57:28.928Z,87.87
2023-04-15T01:58:31.630Z,87.60
2023-04-15T01:59:33.759Z,88.27
2023-04-15T02:00:35.911Z,88.67
2023-04-15T02:01:38.260Z,87.79
2023-04-15T02:02:40.665Z,87.92
2023-04-15T02:03:43.041Z,88.08
2023-04-15T02:04:45.527Z,88.26
2023-04-15T02:05:47.635Z,88.26
2023-04-15T02:06:49.736Z,88.14
2023-04-15T02:07:52.228Z,88.26
2023-04-15T02:08:54.275Z,88.13
2023-04-15T02:09:56.349Z,88.25
2023-04-15T02:10:58.598Z,88.20
2023-04-15T02:12:00.892Z,88.33
2023-04-15T02:13:03.020Z,87.79
2023-04-15T02:14:06.443Z,88.35
2023-04-15T02:15:10.206Z,88.59
2023-04-15T02:16:19.285Z,88.35
2023-04-15T02:17:21.752Z,88.58
2023-04-15T02:18:23.854Z,88.69
2023-04-15T02:19:26.134Z,88.34
2023-04-15T02:20:28.557Z,88.05
2023-04-15T02:21:30.854Z,88.11
2023-04-15T02:22:33.071Z,88.36
2023-04-15T02:23:35.288Z,88.60
2023-04-15T02:24:37.390Z,88.29
2023-04-15T02:25:39.817Z,88.35
2023-04-15T02:26:41.886Z,88.60
2023-04-15T02:27:47.068Z,88.44
2023-04-15T02:28:51.392Z,88.47
2023-04-15T02:29:53.584Z,88.47
2023-04-15T02:30:57.665Z,89.03
2023-04-15T02:31:59.832Z,88.28
2023-04-15T02:33:02.271Z,87.86
2023-04-15T02:34:04.727Z,87.78
2023-04-15T02:35:08.781Z,88.14
2023-04-15T02:36:12.578Z,88.31
2023-04-15T02:37:14.811Z,88.32
2023-04-15T02:38:18.057Z,88.13
2023-04-15T02:39:20.178Z,88.67
2023-04-15T02:40:22.335Z,87.77
2023-04-15T02:41:27.778Z,87.92
2023-04-15T02:42:30.476Z,86.99
2023-04-15T02:43:32.618Z,87.94
2023-04-15T02:44:36.509Z,88.90
2023-04-15T02:45:38.719Z,89.54
2023-04-15T02:46:41.341Z,90.08
2023-04-15T02:47:44.449Z,89.20
2023-04-15T02:48:46.543Z,89.11
2023-04-15T02:49:48.662Z,89.17
2023-04-15T02:50:51.408Z,89.18
2023-04-15T02:51:54.131Z,88.88
2023-04-15T02:52:56.346Z,89.61
2023-04-15T02:53:58.509Z,89.08
2023-04-15T02:55:02.555Z,89.18
2023-04-15T02:56:06.146Z,89.26
2023-04-15T02:57:08.325Z,89.60
2023-04-15T02:58:10.982Z,89.57
2023-04-15T02:59:13.458Z,89.21
2023-04-15T03:00:16.257Z,88.51
2023-04-15T03:01:18.656Z,88.79
2023-04-15T03:02:20.973Z,88.52
2023-04-15T03:03:23.313Z,88.81
2023-04-15T03:04:25.492Z,88.65
2023-04-15T03:05:27.763Z,88.64
2023-04-15T03:06:29.979Z,89.20
2023-04-15T03:07:32.114Z,89.36
2023-04-15T03:08:34.341Z,89.23
2023-04-15T03:09:36.488Z,89.16
2023-04-15T03:10:38.604Z,89.14
2023-04-15T03:11:42.121Z,88.54
2023-04-15T03:12:44.326Z,88.19
2023-04-15T03:13:46.472Z,88.10
2023-04-15T03:14:48.584Z,88.13
2023-04-15T03:15:50.805Z,88.03
2023-04-15T03:16:52.996Z,87.58
2023-04-15T03:17:55.166Z,87.57
2023-04-15T03:18:57.256Z,88.63
2023-04-15T03:19:59.438Z,88.31
2023-04-15T03:21:02.106Z,88.23
2023-04-15T03:22:04.244Z,88.54
2023-04-15T03:23:06.505Z,88.17
2023-04-15T03:24:08.607Z,88.66
2023-04-15T03:25:10.747Z,88.54
2023-04-15T03:26:28.332Z,88.35
2023-04-15T03:27:30.380Z,88.49
2023-04-15T03:28:32.825Z,88.43
2023-04-15T03:29:34.994Z,88.35
2023-04-15T03:30:37.120Z,88.63
2023-04-15T03:31:39.253Z,88.76
2023-04-15T03:32:41.427Z,88.31
2023-04-15T03:33:43.543Z,88.33
2023-04-15T03:34:45.668Z,88.19
2023-04-15T03:35:47.874Z,88.33
2023-04-15T03:36:49.980Z,88.08
2023-04-15T03:37:52.319Z,88.28
2023-04-15T03:38:55.123Z,88.70
2023-04-15T03:39:57.262Z,88.88
2023-04-15T03:40:59.341Z,89.85
2023-04-15T03:42:01.913Z,89.76
2023-04-15T03:43:04.038Z,89.71
2023-04-15T03:44:06.410Z,90.01
2023-04-15T03:45:08.874Z,90.35
2023-04-15T03:46:11.167Z,89.25
2023-04-15T03:47:13.395Z,88.28
2023-04-15T03:48:18.180Z,88.46
2023-04-15T03:49:22.983Z,88.87
2023-04-15T03:50:25.181Z,88.39
2023-04-15T03:51:27.542Z,88.41
2023-04-15T03:52:29.641Z,88.47
2023-04-15T03:53:31.691Z,88.61
2023-04-15T03:54:33.865Z,88.65
2023-04-15T03:55:35.949Z,88.88
2023-04-15T03:56:38.040Z,89.06
2023-04-15T03:57:40.440Z,89.19
2023-04-15T03:58:42.571Z,88.74
2023-04-15T03:59:44.744Z,89.18
2023-04-15T04:00:46.980Z,88.96
2023-04-15T04:01:49.343Z,88.97
2023-04-15T04:02:51.597Z,88.59
2023-04-15T04:03:53.884Z,88.73
2023-04-15T04:04:56.253Z,88.58
2023-04-15T04:05:58.350Z,88.77
2023-04-15T04:07:00.587Z,88.71
2023-04-15T04:08:02.802Z,88.52
2023-04-15T04:09:05.152Z,88.53
2023-04-15T04:10:07.944Z,88.80
2023-04-15T04:11:10.091Z,88.64
2023-04-15T04:12:12.198Z,89.38
2023-04-15T04:13:14.294Z,89.81
2023-04-15T04:14:16.437Z,89.28
2023-04-15T04:15:18.551Z,89.20
2023-04-15T04:16:20.974Z,88.96
2023-04-15T04:17:23.568Z,89.39
2023-04-15T04:18:25.797Z,89.27
2023-04-15T04:19:27.956Z,89.31
2023-04-15T04:20:32.112Z,89.02
2023-04-15T04:21:34.282Z,88.85
2023-04-15T04:22:40.137Z,88.52
2023-04-15T04:23:42.319Z,88.46
2023-04-15T04:24:44.407Z,88.53
2023-04-15T04:25:46.666Z,88.22
2023-04-15T04:26:48.733Z,88.36
2023-04-15T04:27:50.838Z,88.32
2023-04-15T04:28:53.123Z,88.31
2023-04-15T04:29:55.212Z,88.32
2023-04-15T04:30:57.417Z,87.94
2023-04-15T04:31:59.612Z,88.22
2023-04-15T04:33:01.866Z,88.63
2023-04-15T04:34:04.020Z,89.06
2023-04-15T04:35:07.189Z,89.61
2023-04-15T04:36:09.386Z,89.19
2023-04-15T04:37:11.526Z,89.10
2023-04-15T04:38:13.631Z,89.18
2023-04-15T04:39:15.773Z,89.06
2023-04-15T04:40:18.028Z,88.73
2023-04-15T04:41:20.458Z,88.73
2023-04-15T04:42:22.777Z,88.61
2023-04-15T04:43:24.906Z,88.04
2023-04-15T04:44:27.175Z,88.05
2023-04-15T04:45:29.286Z,87.97
2023-04-15T04:46:31.645Z,87.71
2023-04-15T04:47:33.775Z,87.91
2023-04-15T04:48:36.019Z,87.82
2023-04-15T04:49:38.253Z,87.89
2023-04-15T04:50:40.429Z,88.37
2023-04-15T04:51:42.534Z,88.19
2023-04-15T04:52:44.710Z,88.40
2023-04-15T04:53:46.840Z,88.30
2023-04-15T04:54:49.030Z,88.09
2023-04-15T04:55:51.282Z,88.15
2023-04-15T04:56:53.702Z,87.87
2023-04-15T04:57:55.879Z,87.21
2023-04-15T04:58:58.151Z,87.01
2023-04-15T05:00:00.697Z,86.49
2023-04-15T05:01:03.095Z,85.95
2023-04-15T05:02:05.576Z,85.41
2023-04-15T05:03:07.966Z,85.67
2023-04-15T05:04:10.499Z,85.44
2023-04-15T05:05:13.457Z,85.04
2023-04-15T05:06:15.711Z,84.47
2023-04-15T05:07:17.858Z,83.66
2023-04-15T05:08:19.976Z,83.46
2023-04-15T05:09:22.098Z,84.08
2023-04-15T05:10:24.245Z,84.22
2023-04-15T05:11:26.413Z,84.19
2023-04-15T05:12:28.575Z,83.90
2023-04-15T05:13:30.693Z,83.56
2023-04-15T05:14:33.362Z,83.86
2023-04-15T05:15:37.073Z,84.23
2023-04-15T05:16:39.262Z,85.11
2023-04-15T05:17:41.432Z,84.51
2023-04-15T05:18:43.561Z,84.53
2023-04-15T05:19:45.856Z,84.72
2023-04-15T05:20:50.041Z,83.82
2023-04-15T05:21:52.311Z,84.08
2023-04-15T05:22:54.408Z,83.88
2023-04-15T05:23:56.495Z,83.37
2023-04-15T05:24:58.661Z,82.70
2023-04-15T05:26:00.812Z,83.32
2023-04-15T05:27:02.926Z,82.60
2023-04-15T05:28:05.301Z,82.89
2023-04-15T05:29:07.394Z,83.21
2023-04-15T05:30:10.664Z,82.74
2023-04-15T05:31:14.187Z,82.18
2023-04-15T05:32:16.265Z,81.82
2023-04-15T05:33:19.156Z,81.70
2023-04-15T05:34:21.232Z,82.18
2023-04-15T05:35:23.347Z,81.54
2023-04-15T05:36:26.068Z,82.48
2023-04-15T05:37:28.164Z,82.64
2023-04-15T05:38:30.585Z,82.46
2023-04-15T05:39:32.824Z,83.31
2023-04-15T05:40:34.923Z,83.76
2023-04-15T05:41:37.551Z,84.25
2023-04-15T05:42:39.743Z,83.93
2023-04-15T05:43:41.989Z,83.86
2023-04-15T05:44:44.181Z,83.83
2023-04-15T05:45:46.768Z,84.19
2023-04-15T05:46:48.822Z,83.86
2023-04-15T05:47:54.124Z,84.70
2023-04-15T05:48:56.879Z,84.11
2023-04-15T05:49:59.235Z,83.10
2023-04-15T05:51:01.614Z,84.56
2023-04-15T05:52:04.057Z,83.67
2023-04-15T05:53:06.124Z,83.55
2023-04-15T05:54:08.413Z,83.23
2023-04-15T05:55:10.958Z,82.74
2023-04-15T05:56:13.075Z,82.20
2023-04-15T05:57:15.144Z,82.26
2023-04-15T05:58:17.188Z,82.25
2023-04-15T05:59:19.448Z,82.64
2023-04-15T06:00:22.290Z,82.48
2023-04-15T06:01:25.416Z,83.00
2023-04-15T06:02:28.011Z,83.18
2023-04-15T06:03:30.708Z,81.96
2023-04-15T06:04:33.072Z,81.82
2023-04-15T06:05:35.744Z,81.07
2023-04-15T06:06:38.377Z,81.50
2023-04-15T06:07:40.527Z,80.70
2023-04-15T06:08:42.592Z,80.14
2023-04-15T06:09:44.962Z,81.07
2023-04-15T06:10:47.259Z,81.12
2023-04-15T06:11:49.321Z,80.74
2023-04-15T06:12:53.229Z,80.56
2023-04-15T06:13:55.541Z,79.30
2023-04-15T06:14:59.585Z,79.23
2023-04-15T06:16:02.284Z,77.84
2023-04-15T06:17:04.437Z,78.05
2023-04-15T06:18:06.693Z,79.13
2023-04-15T06:19:08.841Z,80.40
2023-04-15T06:20:11.684Z,79.57
2023-04-15T06:21:13.893Z,80.14
2023-04-15T06:22:16.196Z,79.91
2023-04-15T06:23:18.297Z,79.82
2023-04-15T06:24:20.379Z,79.32
2023-04-15T06:25:22.669Z,78.92
2023-04-15T06:26:24.767Z,78.51
2023-04-15T06:27:26.838Z,78.22
2023-04-15T06:28:28.974Z,77.59
2023-04-15T06:29:31.133Z,78.10
2023-04-15T06:30:33.388Z,78.47
2023-04-15T06:31:35.938Z,78.18
2023-04-15T06:32:38.250Z,78.43
2023-04-15T06:33:40.342Z,78.29
2023-04-15T06:34:42.441Z,77.89
2023-04-15T06:35:44.581Z,78.46
2023-04-15T06:36:46.698Z,78.88
2023-04-15T06:37:48.781Z,78.33
2023-04-15T06:38:51.119Z,77.66
2023-04-15T06:39:53.249Z,77.68
2023-04-15T06:40:55.455Z,78.46
2023-04-15T06:41:57.611Z,78.00
2023-04-15T06:42:59.722Z,77.75
2023-04-15T06:44:01.980Z,78.02
2023-04-15T06:45:04.725Z,77.97
2023-04-15T06:46:07.097Z,78.84
2023-04-15T06:47:09.260Z,78.49
2023-04-15T06:48:11.763Z,78.66
2023-04-15T06:49:13.885Z,78.08
2023-04-15T06:50:16.057Z,77.51
2023-04-15T06:51:18.268Z,77.51
2023-04-15T06:52:20.425Z,77.89
2023-04-15T06:53:22.984Z,79.12
2023-04-15T06:54:25.150Z,78.55
2023-04-15T06:55:27.518Z,78.46
2023-04-15T06:56:29.941Z,79.00
2023-04-15T06:57:33.836Z,78.72
2023-04-15T06:58:37.249Z,78.49
2023-04-15T06:59:39.336Z,78.55
2023-04-15T07:00:41.846Z,78.10
2023-04-15T07:01:43.979Z,77.53
2023-04-15T07:02:46.813Z,77.10
2023-04-15T07:03:49.169Z,76.96
2023-04-15T07:04:51.232Z,76.24
2023-04-15T07:05:53.562Z,76.08
2023-04-15T07:06:55.711Z,76.69
2023-04-15T07:07:57.973Z,76.91
2023-04-15T07:09:00.426Z,77.77
2023-04-15T07:10:02.827Z,77.07
2023-04-15T07:11:05.005Z,76.45
2023-04-15T07:12:07.097Z,75.77
2023-04-15T07:13:09.239Z,75.75
2023-04-15T07:14:11.568Z,75.38
2023-04-15T07:15:13.722Z,75.71
2023-04-15T07:16:15.862Z,73.92
2023-04-15T07:17:18.086Z,74.25
2023-04-15T07:18:20.250Z,74.71
2023-04-15T07:19:22.326Z,74.52
2023-04-15T07:20:24.431Z,74.21
2023-04-15T07:21:27.689Z,73.64
2023-04-15T07:22:29.815Z,73.79
2023-04-15T07:23:32.270Z,73.83
2023-04-15T07:24:34.421Z,73.52
2023-04-15T07:25:36.782Z,73.78
2023-04-15T07:26:38.939Z,74.12
2023-04-15T07:27:41.694Z,73.73
2023-04-15T07:28:43.767Z,74.57
2023-04-15T07:29:45.875Z,74.32
2023-04-15T07:30:48.805Z,74.82
2023-04-15T07:31:51.263Z,74.21
2023-04-15T07:32:53.499Z,73.12
2023-04-15T07:33:55.688Z,71.62
2023-04-15T07:34:57.937Z,70.96
2023-04-15T07:36:00.074Z,70.51
2023-04-15T07:37:02.201Z,70.49
2023-04-15T07:38:04.265Z,70.65
2023-04-15T07:39:06.442Z,70.13
2023-04-15T07:40:09.266Z,70.52
2023-04-15T07:41:12.172Z,71.36
2023-04-15T07:42:15.280Z,70.06
2023-04-15T07:43:17.429Z,69.75
2023-04-15T07:44:19.551Z,69.76
2023-04-15T07:45:21.748Z,69.54
2023-04-15T07:46:27.511Z,69.56
2023-04-15T07:47:29.675Z,69.64
2023-04-15T07:48:31.971Z,69.06
2023-04-15T07:49:34.032Z,67.12
2023-04-15T07:50:36.184Z,68.06
2023-04-15T07:51:38.471Z,67.25
2023-04-15T07:52:40.714Z,67.56
2023-04-15T07:53:43.464Z,66.31
2023-04-15T07:54:45.748Z,65.35
2023-04-15T07:55:47.812Z,64.58
2023-04-15T07:56:49.922Z,63.68
2023-04-15T07:57:52.025Z,64.70
2023-04-15T07:58:54.099Z,65.02
2023-04-15T07:59:56.335Z,65.16
2023-04-15T08:00:58.714Z,65.95
2023-04-15T08:02:00.915Z,65.69
2023-04-15T08:03:03.404Z,66.44
2023-04-15T08:04:05.791Z,64.82
2023-04-15T08:05:08.354Z,65.59
2023-04-15T08:06:10.466Z,66.93
2023-04-15T08:07:12.575Z,66.78
2023-04-15T08:08:14.797Z,66.60
2023-04-15T08:09:16.913Z,65.94
2023-04-15T08:10:19.104Z,66.01
2023-04-15T08:11:21.447Z,65.60
2023-04-15T08:12:24.114Z,65.33
2023-04-15T08:13:26.492Z,65.12
2023-04-15T08:14:29.209Z,66.22
2023-04-15T08:15:32.944Z,65.83
2023-04-15T08:16:35.185Z,65.05
2023-04-15T08:17:37.406Z,64.62
2023-04-15T08:18:39.529Z,64.40
2023-04-15T08:19:42.457Z,64.36
2023-04-15T08:20:44.555Z,64.30
2023-04-15T08:21:46.819Z,63.75
2023-04-15T08:22:52.012Z,62.97
2023-04-15T08:23:54.690Z,61.94
2023-04-15T08:24:56.838Z,62.29
2023-04-15T08:25:59.070Z,62.31
2023-04-15T08:27:04.282Z,62.32
2023-04-15T08:28:09.032Z,61.45
2023-04-15T08:29:11.125Z,61.21
2023-04-15T08:30:13.431Z,61.39
2023-04-15T08:31:16.690Z,60.62
2023-04-15T08:32:19.220Z,60.68
2023-04-15T08:33:21.414Z,58.31
2023-04-15T08:34:24.291Z,59.20
2023-04-15T08:35:26.508Z,59.74
2023-04-15T08:36:28.645Z,59.09
2023-04-15T08:37:31.185Z,57.77
2023-04-15T08:38:33.727Z,59.17
2023-04-15T08:39:35.816Z,57.73
2023-04-15T08:40:42.923Z,56.78
2023-04-15T08:41:51.834Z,56.22
2023-04-15T08:42:55.024Z,57.29
2023-04-15T08:43:59.415Z,58.49
2023-04-15T08:45:03.926Z,59.07
2023-04-15T08:46:06.582Z,59.54
2023-04-15T08:47:09.362Z,60.09
2023-04-15T08:48:16.680Z,60.09
2023-04-15T08:49:19.407Z,60.98
2023-04-15T08:50:22.035Z,61.37
2023-04-15T08:51:25.056Z,61.12
2023-04-15T08:52:27.487Z,60.17
2023-04-15T08:53:30.620Z,59.02
2023-04-15T08:54:33.874Z,56.67
2023-04-15T08:55:36.961Z,56.49
2023-04-15T08:56:39.328Z,56.77
2023-04-15T08:57:41.594Z,57.18
2023-04-15T08:58:44.928Z,57.23
2023-04-15T08:59:47.344Z,53.41
2023-04-15T09:00:49.591Z,55.17
2023-04-15T09:01:52.531Z,55.32
2023-04-15T09:02:56.228Z,54.64
2023-04-15T09:03:59.168Z,54.99
2023-04-15T09:05:01.640Z,55.87
2023-04-15T09:06:05.842Z,56.03
2023-04-15T09:07:08.033Z,54.76
2023-04-15T09:08:10.251Z,56.45
2023-04-15T09:09:14.353Z,56.83
2023-04-15T09:10:16.640Z,55.63
2023-04-15T09:11:20.231Z,54.10
2023-04-15T09:12:22.741Z,53.51
2023-04-15T09:13:25.524Z,54.80
2023-04-15T09:14:32.095Z,54.10
2023-04-15T09:15:38.463Z,55.46
2023-04-15T09:16:59.624Z,57.39
2023-04-15T09:18:01.896Z,57.27
2023-04-15T09:19:21.637Z,55.98
2023-04-15T09:20:23.923Z,57.20
2023-04-15T09:21:26.196Z,57.99
2023-04-15T09:22:33.004Z,58.31
2023-04-15T09:23:36.253Z,56.58
2023-04-15T09:24:39.821Z,56.37
2023-04-15T09:25:42.610Z,56.32
2023-04-15T09:26:44.715Z,55.65
2023-04-15T09:27:50.987Z,54.59
2023-04-15T09:28:53.091Z,55.01
2023-04-15T09:29:55.218Z,55.57
2023-04-15T09:31:01.228Z,56.36
2023-04-15T09:32:11.297Z,55.09
2023-04-15T09:33:14.831Z,54.41
2023-04-15T09:34:16.990Z,53.96
2023-04-15T09:35:21.580Z,52.33
2023-04-15T09:36:25.202Z,52.51
2023-04-15T09:37:36.873Z,52.65
2023-04-15T09:38:54.960Z,52.89
2023-04-15T09:39:57.068Z,52.85
2023-04-15T09:40:59.638Z,53.47
2023-04-15T09:42:06.947Z,54.16
2023-04-15T09:43:10.722Z,53.23
2023-04-15T09:44:26.055Z,53.48
2023-04-15T09:45:29.704Z,53.30
2023-04-15T09:46:42.867Z,53.80
2023-04-15T09:47:45.708Z,54.94
2023-04-15T09:49:07.579Z,54.78
2023-04-15T09:50:09.918Z,54.50
2023-04-15T09:51:12.062Z,53.68
2023-04-15T09:52:14.237Z,52.19
2023-04-15T09:53:18.246Z,51.85
2023-04-15T09:54:23.110Z,53.08
2023-04-15T09:55:25.289Z,53.65
2023-04-15T09:56:34.741Z,52.80
2023-04-15T09:57:37.765Z,51.92
2023-04-15T09:58:41.671Z,51.21
2023-04-15T09:59:43.815Z,50.52
2023-04-15T10:00:50.514Z,50.31
2023-04-15T10:01:52.768Z,50.35
2023-04-15T10:02:55.021Z,51.45
2023-04-15T10:03:58.157Z,51.30
2023-04-15T10:05:01.719Z,51.60
2023-04-15T10:06:05.603Z,53.38
2023-04-15T10:07:09.778Z,53.05
2023-04-15T10:08:12.702Z,54.43
2023-04-15T10:09:14.803Z,54.49
2023-04-15T10:10:17.592Z,55.16
2023-04-15T10:11:20.156Z,55.76
2023-04-15T10:12:22.909Z,55.08
2023-04-15T10:13:26.553Z,55.85
2023-04-15T10:14:33.732Z,56.08
2023-04-15T10:15:35.881Z,57.47
2023-04-15T10:16:39.685Z,58.32
2023-04-15T10:17:44.152Z,58.45
2023-04-15T10:18:47.987Z,58.00
2023-04-15T10:19:50.968Z,58.01
2023-04-15T10:20:53.872Z,58.48
2023-04-15T10:21:56.155Z,58.16
2023-04-15T10:22:58.422Z,59.13
2023-04-15T10:24:02.030Z,59.55
2023-04-15T10:25:06.093Z,59.80
2023-04-15T10:26:08.470Z,59.81
2023-04-15T10:27:11.314Z,59.85
2023-04-15T10:28:14.605Z,60.04
2023-04-15T10:29:16.825Z,59.62
2023-04-15T10:30:19.032Z,60.89
2023-04-15T10:31:21.738Z,60.65
2023-04-15T10:32:24.887Z,60.87
2023-04-15T10:33:27.746Z,60.88
2023-04-15T10:34:30.177Z,60.66
2023-04-15T10:35:33.948Z,58.34
2023-04-15T10:36:36.061Z,56.42
2023-04-15T10:37:39.246Z,55.84
2023-04-15T10:38:45.766Z,57.08
2023-04-15T10:39:48.112Z,56.65
2023-04-15T10:40:50.633Z,58.58
2023-04-15T10:42:24.840Z,58.48
2023-04-15T10:43:29.965Z,59.16
2023-04-15T10:44:32.074Z,58.98
2023-04-15T10:45:36.935Z,59.08
2023-04-15T10:46:41.460Z,58.59
2023-04-15T10:47:43.956Z,56.99
2023-04-15T10:48:53.053Z,55.67
2023-04-15T10:49:59.520Z,55.65
2023-04-15T10:51:05.172Z,55.87
2023-04-15T10:52:08.388Z,55.14
2023-04-15T10:53:11.329Z,55.96
2023-04-15T10:54:14.581Z,58.23
2023-04-15T10:55:27.510Z,58.80
2023-04-15T10:56:30.802Z,59.02
2023-04-15T10:57:38.562Z,60.04
2023-04-15T10:58:44.137Z,61.36
2023-04-15T10:59:58.807Z,60.76
2023-04-15T11:01:03.540Z,61.40
2023-04-15T11:02:06.852Z,61.69
2023-04-15T11:03:10.004Z,62.50
2023-04-15T11:04:12.495Z,63.18
2023-04-15T11:05:16.251Z,63.22
2023-04-15T11:06:18.483Z,63.83
2023-04-15T11:07:46.951Z,64.96
2023-04-15T11:08:58.880Z,65.85
2023-04-15T11:10:01.866Z,67.43
2023-04-15T11:11:04.048Z,69.12
2023-04-15T11:12:10.008Z,68.68
2023-04-15T11:13:12.078Z,69.41
2023-04-15T11:14:16.980Z,69.71
2023-04-15T11:15:33.801Z,68.73
2023-04-15T11:16:44.924Z,68.58
2023-04-15T11:17:47.220Z,68.44
2023-04-15T11:18:56.002Z,68.46
2023-04-15T11:19:58.465Z,68.09
2023-04-15T11:21:03.537Z,66.29
2023-04-15T11:22:12.306Z,64.97
2023-04-15T11:23:16.102Z,65.17
2023-04-15T11:24:27.983Z,65.35
2023-04-15T11:25:31.652Z,64.38
2023-04-15T11:26:34.260Z,63.98
2023-04-15T11:27:36.388Z,63.81
2023-04-15T11:28:41.178Z,63.46
2023-04-15T11:29:44.274Z,62.30
2023-04-15T11:30:46.495Z,62.25
2023-04-15T11:31:51.377Z,60.57
2023-04-15T11:32:55.919Z,59.50
2023-04-15T11:33:59.966Z,60.46
2023-04-15T11:35:02.043Z,60.52
2023-04-15T11:36:04.477Z,60.88
2023-04-15T11:37:07.914Z,61.30
2023-04-15T11:38:14.565Z,61.28
2023-04-15T11:39:16.791Z,60.84
2023-04-15T11:40:31.122Z,59.46
2023-04-15T11:41:33.298Z,59.14
2023-04-15T11:42:48.489Z,59.38
2023-04-15T11:43:52.506Z,59.57
2023-04-15T11:45:10.043Z,58.49
2023-04-15T11:46:12.227Z,58.27
2023-04-15T11:47:24.410Z,59.05
2023-04-15T11:48:27.550Z,58.97
2023-04-15T11:49:31.256Z,59.58
2023-04-15T11:50:33.849Z,60.48
2023-04-15T11:51:36.181Z,60.10
2023-04-15T11:52:38.553Z,60.75
2023-04-15T11:53:48.068Z,60.05
2023-04-15T11:54:50.242Z,60.92
2023-04-15T11:55:53.808Z,58.88
2023-04-15T11:56:56.674Z,59.14
2023-04-15T11:58:23.892Z,59.20
2023-04-15T11:59:28.197Z,58.92
2023-04-15T12:00:35.859Z,59.91
2023-04-15T12:01:43.837Z,59.58
2023-04-15T12:02:46.536Z,59.94
2023-04-15T12:03:50.282Z,60.18
2023-04-15T12:05:04.086Z,61.12
2023-04-15T12:06:16.449Z,62.23
2023-04-15T12:07:19.108Z,61.95
2023-04-15T12:08:21.257Z,62.40
2023-04-15T12:09:23.416Z,62.14
2023-04-15T12:10:26.100Z,61.36
2023-04-15T12:11:31.257Z,61.29
2023-04-15T12:12:33.408Z,61.00
2023-04-15T12:13:35.485Z,59.68
2023-04-15T12:14:40.149Z,58.86
2023-04-15T12:15:42.200Z,56.92
2023-04-15T12:16:48.339Z,57.26
2023-04-15T12:17:55.118Z,56.19
2023-04-15T12:19:01.417Z,55.67
2023-04-15T12:20:04.861Z,54.87
2023-04-15T12:21:10.980Z,54.70
2023-04-15T12:22:17.051Z,54.59
2023-04-15T12:23:21.946Z,54.46
2023-04-15T12:24:24.102Z,53.17
2023-04-15T12:25:35.801Z,54.21
2023-04-15T12:26:53.123Z,52.95
2023-04-15T12:27:56.164Z,53.13
2023-04-15T12:29:02.104Z,54.07
2023-04-15T12:30:08.229Z,54.81
2023-04-15T12:31:11.265Z,54.71
2023-04-15T12:32:15.564Z,55.60
2023-04-15T12:33:17.961Z,55.22
2023-04-15T12:34:33.402Z,54.20
2023-04-15T12:35:35.492Z,53.63
2023-04-15T12:36:37.844Z,52.78
2023-04-15T12:37:39.921Z,53.24
2023-04-15T12:38:42.046Z,54.30
2023-04-15T12:39:45.982Z,54.84
2023-04-15T12:40:48.110Z,56.03
2023-04-15T12:41:50.197Z,56.87
2023-04-15T12:42:52.272Z,57.20
2023-04-15T12:43:54.398Z,58.37
2023-04-15T12:44:56.919Z,59.89
2023-04-15T12:45:59.033Z,60.78
2023-04-15T12:47:01.346Z,60.83
2023-04-15T12:48:03.535Z,60.52
2023-04-15T12:49:05.749Z,60.41
2023-04-15T12:50:08.396Z,60.04
2023-04-15T12:51:10.539Z,60.62
2023-04-15T12:52:12.734Z,60.51
2023-04-15T12:53:14.897Z,60.33
2023-04-15T12:54:17.922Z,59.94
2023-04-15T12:55:20.022Z,59.87
2023-04-15T12:56:22.511Z,59.91
2023-04-15T12:57:24.568Z,59.91
2023-04-15T12:58:27.541Z,60.38
2023-04-15T12:59:29.695Z,60.12
2023-04-15T13:00:34.624Z,60.05
2023-04-15T13:01:36.921Z,60.70
2023-04-15T13:02:39.406Z,60.97
2023-04-15T13:03:41.730Z,61.68
2023-04-15T13:04:44.025Z,61.70
2023-04-15T13:05:46.291Z,61.19
2023-04-15T13:06:48.607Z,61.12
2023-04-15T13:07:50.741Z,61.01
2023-04-15T13:08:58.318Z,60.35
2023-04-15T13:10:01.100Z,60.40
2023-04-15T13:11:03.881Z,59.97
2023-04-15T13:12:06.181Z,59.38
2023-04-15T13:13:08.606Z,59.12
2023-04-15T13:14:13.909Z,59.06
2023-04-15T13:15:19.433Z,59.74
2023-04-15T13:16:21.997Z,60.50
2023-04-15T13:17:24.191Z,60.80
2023-04-15T13:18:26.297Z,60.72
2023-04-15T13:19:28.449Z,60.93
2023-04-15T13:20:30.557Z,61.40
2023-04-15T13:21:35.736Z,62.03
2023-04-15T13:22:38.415Z,61.41
2023-04-15T13:23:43.198Z,61.56
2023-04-15T13:24:45.576Z,61.42
2023-04-15T13:25:47.858Z,61.19
2023-04-15T13:26:50.502Z,61.02
2023-04-15T13:27:52.772Z,60.72
2023-04-15T13:28:54.914Z,60.61
2023-04-15T13:29:57.248Z,60.30
2023-04-15T13:31:00.383Z,60.72
2023-04-15T13:32:02.612Z,60.50
2023-04-15T13:33:05.674Z,59.97
2023-04-15T13:34:07.998Z,59.97
2023-04-15T13:35:10.334Z,59.29